sensor_id;sensor_type;location;lat;lon;timestamp;temperature;humidity
64226;DHT22;50545;56.064;26.178;2023-09-18T00:01:26;12.10;99.90
64226;DHT22;50545;56.064;26.178;2023-09-18T00:03:55;12.10;99.90
64226;DHT22;50545;56.064;26.178;2023-09-18T00:06:23;12.10;99.90
64226;DHT22;50545;56.064;26.178;2023-09-18T00:08:52;12.00;99.90
64226;DHT22;50545;56.064;26.178;2023-09-18T00:11:21;12.00;99.90
64226;DHT22;50545;56.064;26.178;2023-09-18T00:13:48;12.00;99.90
64226;DHT22;50545;56.064;26.178;2023-09-18T00:16:16;11.90;99.90
64226;DHT22;50545;56.064;26.178;2023-09-18T00:18:44;11.80;99.90
64226;DHT22;50545;56.064;26.178;2023-09-18T00:21:11;11.80;99.90
64226;DHT22;50545;56.064;26.178;2023-09-18T00:23:39;11.70;99.90
64226;DHT22;50545;56.064;26.178;2023-09-18T00:26:06;11.70;99.90
64226;DHT22;50545;56.064;26.178;2023-09-18T00:28:35;11.60;99.90
64226;DHT22;50545;56.064;26.178;2023-09-18T00:31:02;11.60;99.90
64226;DHT22;50545;56.064;26.178;2023-09-18T00:33:30;11.50;99.90
64226;DHT22;50545;56.064;26.178;2023-09-18T00:35:57;11.40;99.90
64226;DHT22;50545;56.064;26.178;2023-09-18T00:38:25;11.40;99.90
64226;DHT22;50545;56.064;26.178;2023-09-18T00:40:52;11.40;99.90
64226;DHT22;50545;56.064;26.178;2023-09-18T00:43:20;11.30;99.90
64226;DHT22;50545;56.064;26.178;2023-09-18T00:45:48;11.30;99.90
64226;DHT22;50545;56.064;26.178;2023-09-18T00:48:17;11.30;99.90
64226;DHT22;50545;56.064;26.178;2023-09-18T00:50:45;11.30;99.90
64226;DHT22;50545;56.064;26.178;2023-09-18T00:53:17;11.30;99.90
64226;DHT22;50545;56.064;26.178;2023-09-18T00:55:46;11.40;99.90
64226;DHT22;50545;56.064;26.178;2023-09-18T00:58:15;11.40;99.90
64226;DHT22;50545;56.064;26.178;2023-09-18T01:00:44;11.40;99.90
64226;DHT22;50545;56.064;26.178;2023-09-18T01:03:12;11.40;99.90
64226;DHT22;50545;56.064;26.178;2023-09-18T01:05:40;11.40;99.90
64226;DHT22;50545;56.064;26.178;2023-09-18T01:08:07;11.40;99.90
64226;DHT22;50545;56.064;26.178;2023-09-18T01:10:42;11.30;99.90
64226;DHT22;50545;56.064;26.178;2023-09-18T01:13:27;11.20;99.90
64226;DHT22;50545;56.064;26.178;2023-09-18T01:16:04;11.10;99.90
64226;DHT22;50545;56.064;26.178;2023-09-18T01:18:35;11.00;99.90
64226;DHT22;50545;56.064;26.178;2023-09-18T01:21:02;10.90;99.90
64226;DHT22;50545;56.064;26.178;2023-09-18T01:23:30;10.90;99.90
64226;DHT22;50545;56.064;26.178;2023-09-18T01:25:58;10.90;99.90
64226;DHT22;50545;56.064;26.178;2023-09-18T01:28:25;10.80;99.90
64226;DHT22;50545;56.064;26.178;2023-09-18T01:30:53;10.90;99.90
64226;DHT22;50545;56.064;26.178;2023-09-18T01:33:21;10.90;99.90
64226;DHT22;50545;56.064;26.178;2023-09-18T01:35:50;10.90;99.90
64226;DHT22;50545;56.064;26.178;2023-09-18T01:38:19;10.80;99.90
64226;DHT22;50545;56.064;26.178;2023-09-18T01:40:47;10.80;99.90
64226;DHT22;50545;56.064;26.178;2023-09-18T01:43:15;10.80;99.90
64226;DHT22;50545;56.064;26.178;2023-09-18T01:45:43;10.80;99.90
64226;DHT22;50545;56.064;26.178;2023-09-18T01:48:10;10.90;99.90
64226;DHT22;50545;56.064;26.178;2023-09-18T01:50:38;10.90;99.90
64226;DHT22;50545;56.064;26.178;2023-09-18T01:53:07;11.00;99.90
64226;DHT22;50545;56.064;26.178;2023-09-18T01:55:35;11.00;99.90
64226;DHT22;50545;56.064;26.178;2023-09-18T01:58:02;11.10;99.90
64226;DHT22;50545;56.064;26.178;2023-09-18T02:00:30;11.10;99.90
64226;DHT22;50545;56.064;26.178;2023-09-18T02:02:58;11.20;99.90
64226;DHT22;50545;56.064;26.178;2023-09-18T02:05:45;11.30;99.90
64226;DHT22;50545;56.064;26.178;2023-09-18T02:08:13;11.40;99.90
64226;DHT22;50545;56.064;26.178;2023-09-18T02:10:41;11.50;99.90
64226;DHT22;50545;56.064;26.178;2023-09-18T02:13:08;11.60;99.90
64226;DHT22;50545;56.064;26.178;2023-09-18T02:15:37;11.70;99.90
64226;DHT22;50545;56.064;26.178;2023-09-18T02:18:06;11.80;99.90
64226;DHT22;50545;56.064;26.178;2023-09-18T02:20:40;11.80;99.90
64226;DHT22;50545;56.064;26.178;2023-09-18T02:23:08;11.90;99.90
64226;DHT22;50545;56.064;26.178;2023-09-18T02:25:36;12.00;99.90
64226;DHT22;50545;56.064;26.178;2023-09-18T02:28:04;12.10;99.90
64226;DHT22;50545;56.064;26.178;2023-09-18T02:30:31;12.10;99.90
64226;DHT22;50545;56.064;26.178;2023-09-18T02:32:59;12.10;99.90
64226;DHT22;50545;56.064;26.178;2023-09-18T02:35:27;12.20;99.90
64226;DHT22;50545;56.064;26.178;2023-09-18T02:37:54;12.30;99.90
64226;DHT22;50545;56.064;26.178;2023-09-18T02:40:21;12.30;99.90
64226;DHT22;50545;56.064;26.178;2023-09-18T02:42:49;12.40;99.90
64226;DHT22;50545;56.064;26.178;2023-09-18T02:45:16;12.40;99.90
64226;DHT22;50545;56.064;26.178;2023-09-18T02:47:44;12.50;99.90
64226;DHT22;50545;56.064;26.178;2023-09-18T02:50:12;12.50;99.90
64226;DHT22;50545;56.064;26.178;2023-09-18T02:52:39;12.60;99.90
64226;DHT22;50545;56.064;26.178;2023-09-18T02:55:07;12.60;99.90
64226;DHT22;50545;56.064;26.178;2023-09-18T02:57:36;12.70;99.90
64226;DHT22;50545;56.064;26.178;2023-09-18T03:00:05;12.70;99.90
64226;DHT22;50545;56.064;26.178;2023-09-18T03:02:33;12.80;99.90
64226;DHT22;50545;56.064;26.178;2023-09-18T03:05:01;12.80;99.90
64226;DHT22;50545;56.064;26.178;2023-09-18T03:07:29;12.90;99.90
64226;DHT22;50545;56.064;26.178;2023-09-18T03:09:56;12.90;99.90
64226;DHT22;50545;56.064;26.178;2023-09-18T03:12:23;12.90;99.90
64226;DHT22;50545;56.064;26.178;2023-09-18T03:14:51;13.00;99.90
64226;DHT22;50545;56.064;26.178;2023-09-18T03:17:18;13.00;99.90
64226;DHT22;50545;56.064;26.178;2023-09-18T03:19:50;13.10;99.90
64226;DHT22;50545;56.064;26.178;2023-09-18T03:22:18;13.10;99.90
64226;DHT22;50545;56.064;26.178;2023-09-18T03:24:45;13.20;99.90
64226;DHT22;50545;56.064;26.178;2023-09-18T03:27:13;13.30;99.90
64226;DHT22;50545;56.064;26.178;2023-09-18T03:29:40;13.30;99.90
64226;DHT22;50545;56.064;26.178;2023-09-18T03:32:08;13.30;99.90
64226;DHT22;50545;56.064;26.178;2023-09-18T03:34:39;13.40;99.90
64226;DHT22;50545;56.064;26.178;2023-09-18T03:37:09;13.30;99.90
64226;DHT22;50545;56.064;26.178;2023-09-18T03:39:37;13.40;99.90
64226;DHT22;50545;56.064;26.178;2023-09-18T03:42:04;13.30;99.90
64226;DHT22;50545;56.064;26.178;2023-09-18T03:44:32;13.30;99.90
64226;DHT22;50545;56.064;26.178;2023-09-18T03:46:59;13.40;99.90
64226;DHT22;50545;56.064;26.178;2023-09-18T03:49:28;13.40;99.90
64226;DHT22;50545;56.064;26.178;2023-09-18T03:51:55;13.40;99.90
64226;DHT22;50545;56.064;26.178;2023-09-18T03:54:23;13.50;99.90
64226;DHT22;50545;56.064;26.178;2023-09-18T03:56:50;13.50;99.90
64226;DHT22;50545;56.064;26.178;2023-09-18T03:59:17;13.50;99.90
64226;DHT22;50545;56.064;26.178;2023-09-18T04:01:45;13.60;99.90
64226;DHT22;50545;56.064;26.178;2023-09-18T04:04:13;13.60;99.90
64226;DHT22;50545;56.064;26.178;2023-09-18T04:06:44;13.60;99.90
64226;DHT22;50545;56.064;26.178;2023-09-18T04:09:13;13.60;99.90
64226;DHT22;50545;56.064;26.178;2023-09-18T04:11:42;13.60;99.90
64226;DHT22;50545;56.064;26.178;2023-09-18T04:14:09;13.60;99.90
64226;DHT22;50545;56.064;26.178;2023-09-18T04:16:37;13.70;99.90
64226;DHT22;50545;56.064;26.178;2023-09-18T04:19:07;13.60;99.90
64226;DHT22;50545;56.064;26.178;2023-09-18T04:21:35;13.60;99.90
64226;DHT22;50545;56.064;26.178;2023-09-18T04:24:03;13.60;99.90
64226;DHT22;50545;56.064;26.178;2023-09-18T04:26:30;13.60;99.90
64226;DHT22;50545;56.064;26.178;2023-09-18T04:28:58;13.60;99.90
64226;DHT22;50545;56.064;26.178;2023-09-18T04:31:27;13.60;99.90
64226;DHT22;50545;56.064;26.178;2023-09-18T04:33:55;13.60;99.90
64226;DHT22;50545;56.064;26.178;2023-09-18T04:36:23;13.60;99.90
64226;DHT22;50545;56.064;26.178;2023-09-18T04:38:52;13.60;99.90
64226;DHT22;50545;56.064;26.178;2023-09-18T04:41:19;13.60;99.90
64226;DHT22;50545;56.064;26.178;2023-09-18T04:43:47;13.60;99.90
64226;DHT22;50545;56.064;26.178;2023-09-18T04:46:15;13.60;99.90
64226;DHT22;50545;56.064;26.178;2023-09-18T04:48:42;13.60;99.90
64226;DHT22;50545;56.064;26.178;2023-09-18T04:51:10;13.60;99.90
64226;DHT22;50545;56.064;26.178;2023-09-18T04:53:39;13.60;99.90
64226;DHT22;50545;56.064;26.178;2023-09-18T04:56:06;13.50;99.90
64226;DHT22;50545;56.064;26.178;2023-09-18T04:58:34;13.50;99.90
64226;DHT22;50545;56.064;26.178;2023-09-18T05:01:05;13.50;99.90
64226;DHT22;50545;56.064;26.178;2023-09-18T05:03:35;13.50;99.90
64226;DHT22;50545;56.064;26.178;2023-09-18T05:06:05;13.50;99.90
64226;DHT22;50545;56.064;26.178;2023-09-18T05:08:32;13.50;99.90
64226;DHT22;50545;56.064;26.178;2023-09-18T05:11:00;13.60;99.90
64226;DHT22;50545;56.064;26.178;2023-09-18T05:13:28;13.60;99.90
64226;DHT22;50545;56.064;26.178;2023-09-18T05:15:55;13.60;99.90
64226;DHT22;50545;56.064;26.178;2023-09-18T05:18:23;13.60;99.90
64226;DHT22;50545;56.064;26.178;2023-09-18T05:20:50;13.60;99.90
64226;DHT22;50545;56.064;26.178;2023-09-18T05:23:18;13.60;99.90
64226;DHT22;50545;56.064;26.178;2023-09-18T05:25:46;13.60;99.90
64226;DHT22;50545;56.064;26.178;2023-09-18T05:28:13;13.60;99.90
64226;DHT22;50545;56.064;26.178;2023-09-18T05:30:41;13.60;99.90
64226;DHT22;50545;56.064;26.178;2023-09-18T05:33:08;13.60;99.90
64226;DHT22;50545;56.064;26.178;2023-09-18T05:35:39;13.60;99.90
64226;DHT22;50545;56.064;26.178;2023-09-18T05:38:07;13.60;99.90
64226;DHT22;50545;56.064;26.178;2023-09-18T05:40:36;13.60;99.90
64226;DHT22;50545;56.064;26.178;2023-09-18T05:43:03;13.60;99.90
64226;DHT22;50545;56.064;26.178;2023-09-18T05:45:31;13.60;99.90
64226;DHT22;50545;56.064;26.178;2023-09-18T05:48:00;13.70;99.90
64226;DHT22;50545;56.064;26.178;2023-09-18T05:50:35;13.70;99.90
64226;DHT22;50545;56.064;26.178;2023-09-18T05:53:03;13.70;99.90
64226;DHT22;50545;56.064;26.178;2023-09-18T05:55:32;13.70;99.90
64226;DHT22;50545;56.064;26.178;2023-09-18T05:58:00;13.80;99.90
64226;DHT22;50545;56.064;26.178;2023-09-18T06:00:30;13.80;99.90
64226;DHT22;50545;56.064;26.178;2023-09-18T06:02:58;13.90;99.90
64226;DHT22;50545;56.064;26.178;2023-09-18T06:05:26;13.90;99.90
64226;DHT22;50545;56.064;26.178;2023-09-18T06:07:54;14.00;99.90
64226;DHT22;50545;56.064;26.178;2023-09-18T06:10:21;14.10;99.90
64226;DHT22;50545;56.064;26.178;2023-09-18T06:12:49;14.10;99.90
64226;DHT22;50545;56.064;26.178;2023-09-18T06:15:16;14.20;99.90
64226;DHT22;50545;56.064;26.178;2023-09-18T06:17:46;14.20;99.90
64226;DHT22;50545;56.064;26.178;2023-09-18T06:20:13;14.20;99.90
64226;DHT22;50545;56.064;26.178;2023-09-18T06:22:43;14.30;99.90
64226;DHT22;50545;56.064;26.178;2023-09-18T06:25:11;14.30;99.90
64226;DHT22;50545;56.064;26.178;2023-09-18T06:27:39;14.30;99.90
64226;DHT22;50545;56.064;26.178;2023-09-18T06:30:07;14.30;99.90
64226;DHT22;50545;56.064;26.178;2023-09-18T06:32:35;14.30;99.90
64226;DHT22;50545;56.064;26.178;2023-09-18T06:35:05;14.40;99.90
64226;DHT22;50545;56.064;26.178;2023-09-18T06:37:32;14.40;99.90
64226;DHT22;50545;56.064;26.178;2023-09-18T06:40:00;14.50;99.90
64226;DHT22;50545;56.064;26.178;2023-09-18T06:42:31;14.50;99.90
64226;DHT22;50545;56.064;26.178;2023-09-18T06:44:59;14.50;99.90
64226;DHT22;50545;56.064;26.178;2023-09-18T06:47:28;14.50;99.90
64226;DHT22;50545;56.064;26.178;2023-09-18T06:49:56;14.50;99.90
64226;DHT22;50545;56.064;26.178;2023-09-18T06:52:23;14.60;99.90
64226;DHT22;50545;56.064;26.178;2023-09-18T06:54:52;14.70;99.90
64226;DHT22;50545;56.064;26.178;2023-09-18T06:57:20;14.70;99.90
64226;DHT22;50545;56.064;26.178;2023-09-18T06:59:50;14.70;99.90
64226;DHT22;50545;56.064;26.178;2023-09-18T07:02:18;14.80;99.90
64226;DHT22;50545;56.064;26.178;2023-09-18T07:04:45;14.90;99.90
64226;DHT22;50545;56.064;26.178;2023-09-18T07:07:14;15.10;99.90
64226;DHT22;50545;56.064;26.178;2023-09-18T07:09:42;15.20;99.90
64226;DHT22;50545;56.064;26.178;2023-09-18T07:12:29;15.30;99.90
64226;DHT22;50545;56.064;26.178;2023-09-18T07:15:03;15.40;99.90
64226;DHT22;50545;56.064;26.178;2023-09-18T07:17:33;15.40;99.90
64226;DHT22;50545;56.064;26.178;2023-09-18T07:20:03;15.50;99.90
64226;DHT22;50545;56.064;26.178;2023-09-18T07:22:45;15.50;99.90
64226;DHT22;50545;56.064;26.178;2023-09-18T07:25:14;15.60;99.90
64226;DHT22;50545;56.064;26.178;2023-09-18T07:27:42;15.60;99.90
64226;DHT22;50545;56.064;26.178;2023-09-18T07:30:13;15.60;99.90
64226;DHT22;50545;56.064;26.178;2023-09-18T07:32:43;15.60;99.90
64226;DHT22;50545;56.064;26.178;2023-09-18T07:35:11;15.70;99.90
64226;DHT22;50545;56.064;26.178;2023-09-18T07:37:40;15.80;99.90
64226;DHT22;50545;56.064;26.178;2023-09-18T07:40:08;15.80;99.90
64226;DHT22;50545;56.064;26.178;2023-09-18T07:42:35;15.70;99.90
64226;DHT22;50545;56.064;26.178;2023-09-18T07:45:03;15.70;99.90
64226;DHT22;50545;56.064;26.178;2023-09-18T07:47:31;15.70;99.90
64226;DHT22;50545;56.064;26.178;2023-09-18T07:49:59;15.70;99.90
64226;DHT22;50545;56.064;26.178;2023-09-18T07:52:27;15.70;99.90
64226;DHT22;50545;56.064;26.178;2023-09-18T07:54:55;15.70;99.90
64226;DHT22;50545;56.064;26.178;2023-09-18T07:57:23;15.60;99.90
64226;DHT22;50545;56.064;26.178;2023-09-18T07:59:51;15.70;99.90
64226;DHT22;50545;56.064;26.178;2023-09-18T08:02:19;15.70;99.90
64226;DHT22;50545;56.064;26.178;2023-09-18T08:04:46;15.80;99.90
64226;DHT22;50545;56.064;26.178;2023-09-18T08:07:14;15.90;99.90
64226;DHT22;50545;56.064;26.178;2023-09-18T08:09:41;15.90;99.90
64226;DHT22;50545;56.064;26.178;2023-09-18T08:12:09;16.00;99.90
64226;DHT22;50545;56.064;26.178;2023-09-18T08:14:37;16.20;99.90
64226;DHT22;50545;56.064;26.178;2023-09-18T08:17:05;16.20;99.90
64226;DHT22;50545;56.064;26.178;2023-09-18T08:19:36;16.20;99.90
64226;DHT22;50545;56.064;26.178;2023-09-18T08:22:04;16.20;99.90
64226;DHT22;50545;56.064;26.178;2023-09-18T08:24:31;16.20;99.90
64226;DHT22;50545;56.064;26.178;2023-09-18T08:26:59;16.30;99.90
64226;DHT22;50545;56.064;26.178;2023-09-18T08:29:26;16.30;99.90
64226;DHT22;50545;56.064;26.178;2023-09-18T08:31:54;16.40;99.90
64226;DHT22;50545;56.064;26.178;2023-09-18T08:34:22;16.40;99.90
64226;DHT22;50545;56.064;26.178;2023-09-18T08:36:51;16.40;99.90
64226;DHT22;50545;56.064;26.178;2023-09-18T08:39:18;16.40;99.90
64226;DHT22;50545;56.064;26.178;2023-09-18T08:41:50;16.40;99.90
64226;DHT22;50545;56.064;26.178;2023-09-18T08:44:19;16.40;99.90
64226;DHT22;50545;56.064;26.178;2023-09-18T08:46:47;16.50;99.90
64226;DHT22;50545;56.064;26.178;2023-09-18T08:49:15;16.60;99.90
64226;DHT22;50545;56.064;26.178;2023-09-18T08:51:43;16.60;99.90
64226;DHT22;50545;56.064;26.178;2023-09-18T08:54:11;16.70;99.90
64226;DHT22;50545;56.064;26.178;2023-09-18T08:56:39;16.80;99.90
64226;DHT22;50545;56.064;26.178;2023-09-18T08:59:07;16.90;99.90
64226;DHT22;50545;56.064;26.178;2023-09-18T09:01:34;17.00;99.90
64226;DHT22;50545;56.064;26.178;2023-09-18T09:04:01;17.10;99.90
64226;DHT22;50545;56.064;26.178;2023-09-18T09:06:29;17.20;99.90
64226;DHT22;50545;56.064;26.178;2023-09-18T09:08:57;17.30;99.90
64226;DHT22;50545;56.064;26.178;2023-09-18T09:11:24;17.50;99.90
64226;DHT22;50545;56.064;26.178;2023-09-18T09:14:13;17.50;99.90
64226;DHT22;50545;56.064;26.178;2023-09-18T09:16:48;17.60;99.90
64226;DHT22;50545;56.064;26.178;2023-09-18T09:19:17;17.70;99.90
64226;DHT22;50545;56.064;26.178;2023-09-18T09:21:45;17.70;99.90
64226;DHT22;50545;56.064;26.178;2023-09-18T09:24:13;17.90;99.90
64226;DHT22;50545;56.064;26.178;2023-09-18T09:26:41;18.00;99.90
64226;DHT22;50545;56.064;26.178;2023-09-18T09:29:21;18.10;99.90
64226;DHT22;50545;56.064;26.178;2023-09-18T09:31:48;18.20;99.90
64226;DHT22;50545;56.064;26.178;2023-09-18T09:34:25;18.40;99.90
64226;DHT22;50545;56.064;26.178;2023-09-18T09:36:55;18.50;99.90
64226;DHT22;50545;56.064;26.178;2023-09-18T09:39:23;18.60;98.80
64226;DHT22;50545;56.064;26.178;2023-09-18T09:41:52;18.60;98.70
64226;DHT22;50545;56.064;26.178;2023-09-18T09:44:21;18.70;99.30
64226;DHT22;50545;56.064;26.178;2023-09-18T09:46:49;18.80;99.70
64226;DHT22;50545;56.064;26.178;2023-09-18T09:49:17;18.80;98.60
64226;DHT22;50545;56.064;26.178;2023-09-18T09:51:46;19.00;98.70
64226;DHT22;50545;56.064;26.178;2023-09-18T09:54:14;19.10;98.40
64226;DHT22;50545;56.064;26.178;2023-09-18T09:57:03;19.20;98.60
64226;DHT22;50545;56.064;26.178;2023-09-18T09:59:32;19.30;97.30
64226;DHT22;50545;56.064;26.178;2023-09-18T10:02:03;19.20;97.50
64226;DHT22;50545;56.064;26.178;2023-09-18T10:04:32;19.10;97.80
64226;DHT22;50545;56.064;26.178;2023-09-18T10:07:10;19.10;98.30
64226;DHT22;50545;56.064;26.178;2023-09-18T10:09:41;19.20;98.50
64226;DHT22;50545;56.064;26.178;2023-09-18T10:12:11;19.30;98.80
64226;DHT22;50545;56.064;26.178;2023-09-18T10:14:40;19.50;98.10
64226;DHT22;50545;56.064;26.178;2023-09-18T10:17:27;19.60;97.10
64226;DHT22;50545;56.064;26.178;2023-09-18T10:20:09;19.70;97.40
64226;DHT22;50545;56.064;26.178;2023-09-18T10:22:49;19.80;97.40
64226;DHT22;50545;56.064;26.178;2023-09-18T10:25:29;19.90;96.20
64226;DHT22;50545;56.064;26.178;2023-09-18T10:27:59;19.90;96.40
64226;DHT22;50545;56.064;26.178;2023-09-18T10:30:29;19.90;96.10
64226;DHT22;50545;56.064;26.178;2023-09-18T10:32:59;19.90;96.60
64226;DHT22;50545;56.064;26.178;2023-09-18T10:35:29;20.00;96.20
64226;DHT22;50545;56.064;26.178;2023-09-18T10:37:57;20.10;96.40
64226;DHT22;50545;56.064;26.178;2023-09-18T10:40:25;20.20;96.80
64226;DHT22;50545;56.064;26.178;2023-09-18T10:42:57;20.30;95.40
64226;DHT22;50545;56.064;26.178;2023-09-18T10:45:25;20.30;95.50
64226;DHT22;50545;56.064;26.178;2023-09-18T10:47:54;20.40;95.10
64226;DHT22;50545;56.064;26.178;2023-09-18T10:50:26;20.30;95.90
64226;DHT22;50545;56.064;26.178;2023-09-18T10:52:56;20.20;95.80
64226;DHT22;50545;56.064;26.178;2023-09-18T10:55:24;20.20;96.20
64226;DHT22;50545;56.064;26.178;2023-09-18T10:57:58;20.20;95.50
64226;DHT22;50545;56.064;26.178;2023-09-18T11:00:29;20.30;96.50
64226;DHT22;50545;56.064;26.178;2023-09-18T11:03:15;20.40;95.60
64226;DHT22;50545;56.064;26.178;2023-09-18T11:05:47;20.40;95.50
64226;DHT22;50545;56.064;26.178;2023-09-18T11:11:05;20.50;95.80
64226;DHT22;50545;56.064;26.178;2023-09-18T11:13:50;20.60;95.20
64226;DHT22;50545;56.064;26.178;2023-09-18T11:19:12;20.70;95.30
64226;DHT22;50545;56.064;26.178;2023-09-18T11:21:41;20.70;95.40
64226;DHT22;50545;56.064;26.178;2023-09-18T11:24:28;20.70;95.40
64226;DHT22;50545;56.064;26.178;2023-09-18T11:26:56;20.80;95.20
64226;DHT22;50545;56.064;26.178;2023-09-18T11:29:26;20.80;94.30
64226;DHT22;50545;56.064;26.178;2023-09-18T11:31:56;20.70;94.60
64226;DHT22;50545;56.064;26.178;2023-09-18T11:34:31;20.80;95.20
64226;DHT22;50545;56.064;26.178;2023-09-18T11:37:00;20.80;96.10
64226;DHT22;50545;56.064;26.178;2023-09-18T11:39:42;21.00;95.60
64226;DHT22;50545;56.064;26.178;2023-09-18T11:42:14;21.10;95.20
64226;DHT22;50545;56.064;26.178;2023-09-18T11:44:43;21.00;94.40
64226;DHT22;50545;56.064;26.178;2023-09-18T11:47:24;21.10;94.70
64226;DHT22;50545;56.064;26.178;2023-09-18T11:49:59;21.10;95.10
64226;DHT22;50545;56.064;26.178;2023-09-18T11:52:29;21.20;94.70
64226;DHT22;50545;56.064;26.178;2023-09-18T11:54:58;21.20;94.70
64226;DHT22;50545;56.064;26.178;2023-09-18T11:57:26;21.20;94.30
64226;DHT22;50545;56.064;26.178;2023-09-18T11:59:56;21.20;94.70
64226;DHT22;50545;56.064;26.178;2023-09-18T12:02:29;21.20;94.70
64226;DHT22;50545;56.064;26.178;2023-09-18T12:05:19;21.20;94.60
64226;DHT22;50545;56.064;26.178;2023-09-18T12:07:47;21.30;94.60
64226;DHT22;50545;56.064;26.178;2023-09-18T12:10:19;21.30;94.20
64226;DHT22;50545;56.064;26.178;2023-09-18T12:12:50;21.30;94.20
64226;DHT22;50545;56.064;26.178;2023-09-18T12:15:18;21.40;94.20
64226;DHT22;50545;56.064;26.178;2023-09-18T12:17:55;21.50;94.20
64226;DHT22;50545;56.064;26.178;2023-09-18T12:20:22;21.40;93.40
64226;DHT22;50545;56.064;26.178;2023-09-18T12:22:51;21.40;93.70
64226;DHT22;50545;56.064;26.178;2023-09-18T12:25:18;21.30;93.40
64226;DHT22;50545;56.064;26.178;2023-09-18T12:27:52;21.30;93.10
64226;DHT22;50545;56.064;26.178;2023-09-18T12:30:21;21.30;93.90
64226;DHT22;50545;56.064;26.178;2023-09-18T12:32:51;21.40;93.60
64226;DHT22;50545;56.064;26.178;2023-09-18T12:35:19;21.50;93.00
64226;DHT22;50545;56.064;26.178;2023-09-18T12:37:46;21.50;93.30
64226;DHT22;50545;56.064;26.178;2023-09-18T12:40:27;21.60;93.80
64226;DHT22;50545;56.064;26.178;2023-09-18T12:42:56;21.70;93.00
64226;DHT22;50545;56.064;26.178;2023-09-18T12:45:24;21.70;93.10
64226;DHT22;50545;56.064;26.178;2023-09-18T12:47:54;21.80;93.20
64226;DHT22;50545;56.064;26.178;2023-09-18T12:50:24;21.90;92.90
64226;DHT22;50545;56.064;26.178;2023-09-18T12:52:51;21.90;93.00
64226;DHT22;50545;56.064;26.178;2023-09-18T12:55:26;21.90;92.20
64226;DHT22;50545;56.064;26.178;2023-09-18T12:57:54;21.70;92.20
64226;DHT22;50545;56.064;26.178;2023-09-18T13:00:23;21.60;92.90
64226;DHT22;50545;56.064;26.178;2023-09-18T13:02:54;21.60;93.20
64226;DHT22;50545;56.064;26.178;2023-09-18T13:05:25;21.60;93.40
64226;DHT22;50545;56.064;26.178;2023-09-18T13:08:04;21.50;93.10
64226;DHT22;50545;56.064;26.178;2023-09-18T13:10:47;21.50;93.00
64226;DHT22;50545;56.064;26.178;2023-09-18T13:13:18;21.50;93.40
64226;DHT22;50545;56.064;26.178;2023-09-18T13:15:46;21.40;93.50
64226;DHT22;50545;56.064;26.178;2023-09-18T13:18:16;21.40;93.10
64226;DHT22;50545;56.064;26.178;2023-09-18T13:20:44;21.40;93.70
64226;DHT22;50545;56.064;26.178;2023-09-18T13:23:12;21.40;93.60
64226;DHT22;50545;56.064;26.178;2023-09-18T13:25:40;21.30;93.60
64226;DHT22;50545;56.064;26.178;2023-09-18T13:28:12;21.20;93.70
64226;DHT22;50545;56.064;26.178;2023-09-18T13:30:41;21.30;93.90
64226;DHT22;50545;56.064;26.178;2023-09-18T13:33:12;21.40;94.30
64226;DHT22;50545;56.064;26.178;2023-09-18T13:35:41;21.50;93.60
64226;DHT22;50545;56.064;26.178;2023-09-18T13:38:10;21.70;93.70
64226;DHT22;50545;56.064;26.178;2023-09-18T13:40:45;21.90;92.90
64226;DHT22;50545;56.064;26.178;2023-09-18T13:43:14;21.90;92.60
64226;DHT22;50545;56.064;26.178;2023-09-18T13:45:42;21.90;92.20
64226;DHT22;50545;56.064;26.178;2023-09-18T13:48:09;21.90;92.50
64226;DHT22;50545;56.064;26.178;2023-09-18T13:50:37;21.70;92.10
64226;DHT22;50545;56.064;26.178;2023-09-18T13:53:06;21.70;92.70
64226;DHT22;50545;56.064;26.178;2023-09-18T13:55:34;21.50;92.80
64226;DHT22;50545;56.064;26.178;2023-09-18T13:58:02;21.50;93.10
64226;DHT22;50545;56.064;26.178;2023-09-18T14:00:33;21.30;93.50
64226;DHT22;50545;56.064;26.178;2023-09-18T14:03:00;21.30;93.30
64226;DHT22;50545;56.064;26.178;2023-09-18T14:05:30;21.20;94.00
64226;DHT22;50545;56.064;26.178;2023-09-18T14:07:58;21.10;93.70
64226;DHT22;50545;56.064;26.178;2023-09-18T14:10:28;21.10;94.00
64226;DHT22;50545;56.064;26.178;2023-09-18T14:12:55;21.10;93.90
64226;DHT22;50545;56.064;26.178;2023-09-18T14:15:24;21.10;93.70
64226;DHT22;50545;56.064;26.178;2023-09-18T14:17:52;21.00;93.80
64226;DHT22;50545;56.064;26.178;2023-09-18T14:20:20;20.90;93.80
64226;DHT22;50545;56.064;26.178;2023-09-18T14:22:47;20.90;93.70
64226;DHT22;50545;56.064;26.178;2023-09-18T14:25:18;20.90;94.20
64226;DHT22;50545;56.064;26.178;2023-09-18T14:27:48;20.90;94.30
64226;DHT22;50545;56.064;26.178;2023-09-18T14:30:16;20.80;94.40
64226;DHT22;50545;56.064;26.178;2023-09-18T14:32:44;20.80;94.00
64226;DHT22;50545;56.064;26.178;2023-09-18T14:35:11;20.70;94.10
64226;DHT22;50545;56.064;26.178;2023-09-18T14:37:41;20.60;94.50
64226;DHT22;50545;56.064;26.178;2023-09-18T14:40:09;20.50;94.80
64226;DHT22;50545;56.064;26.178;2023-09-18T14:42:39;20.40;95.00
64226;DHT22;50545;56.064;26.178;2023-09-18T14:45:07;20.30;95.30
64226;DHT22;50545;56.064;26.178;2023-09-18T14:47:35;20.20;95.20
64226;DHT22;50545;56.064;26.178;2023-09-18T14:50:04;20.10;95.50
64226;DHT22;50545;56.064;26.178;2023-09-18T14:52:32;20.00;95.60
64226;DHT22;50545;56.064;26.178;2023-09-18T14:54:59;19.90;95.70
64226;DHT22;50545;56.064;26.178;2023-09-18T14:57:27;19.90;95.70
64226;DHT22;50545;56.064;26.178;2023-09-18T14:59:55;19.90;95.90
64226;DHT22;50545;56.064;26.178;2023-09-18T15:02:22;19.80;96.10
64226;DHT22;50545;56.064;26.178;2023-09-18T15:04:55;19.80;96.40
64226;DHT22;50545;56.064;26.178;2023-09-18T15:07:22;19.80;96.50
64226;DHT22;50545;56.064;26.178;2023-09-18T15:09:50;19.80;96.50
64226;DHT22;50545;56.064;26.178;2023-09-18T15:12:17;19.80;96.50
64226;DHT22;50545;56.064;26.178;2023-09-18T15:14:45;19.70;96.20
64226;DHT22;50545;56.064;26.178;2023-09-18T15:17:12;19.60;96.60
64226;DHT22;50545;56.064;26.178;2023-09-18T15:19:40;19.60;96.70
64226;DHT22;50545;56.064;26.178;2023-09-18T15:22:09;19.50;96.70
64226;DHT22;50545;56.064;26.178;2023-09-18T15:24:37;19.50;96.80
64226;DHT22;50545;56.064;26.178;2023-09-18T15:27:05;19.50;96.90
64226;DHT22;50545;56.064;26.178;2023-09-18T15:29:32;19.40;97.00
64226;DHT22;50545;56.064;26.178;2023-09-18T15:32:01;19.40;97.10
64226;DHT22;50545;56.064;26.178;2023-09-18T15:34:32;19.30;97.20